sensor_id;sensor_type;location;lat;lon;timestamp;temperature;humidity
40828;DHT22;26549;50.918;5.338;2023-03-23T00:02:28;14.50;99.90
40828;DHT22;26549;50.918;5.338;2023-03-23T00:04:54;14.40;99.90
40828;DHT22;26549;50.918;5.338;2023-03-23T00:07:21;14.40;99.90
40828;DHT22;26549;50.918;5.338;2023-03-23T00:09:51;14.30;99.90
40828;DHT22;26549;50.918;5.338;2023-03-23T00:12:30;14.40;99.90
40828;DHT22;26549;50.918;5.338;2023-03-23T00:15:04;14.40;99.90
40828;DHT22;26549;50.918;5.338;2023-03-23T00:17:30;14.50;99.90
40828;DHT22;26549;50.918;5.338;2023-03-23T00:19:59;14.30;99.90
40828;DHT22;26549;50.918;5.338;2023-03-23T00:22:27;14.50;99.90
40828;DHT22;26549;50.918;5.338;2023-03-23T00:24:54;14.40;99.90
40828;DHT22;26549;50.918;5.338;2023-03-23T00:27:20;14.50;99.90
40828;DHT22;26549;50.918;5.338;2023-03-23T00:29:50;14.40;99.90
40828;DHT22;26549;50.918;5.338;2023-03-23T00:32:23;14.40;99.90
40828;DHT22;26549;50.918;5.338;2023-03-23T00:34:53;14.40;99.90
40828;DHT22;26549;50.918;5.338;2023-03-23T00:37:20;14.40;99.90
40828;DHT22;26549;50.918;5.338;2023-03-23T00:39:46;14.50;99.90
40828;DHT22;26549;50.918;5.338;2023-03-23T00:42:15;14.50;99.90
40828;DHT22;26549;50.918;5.338;2023-03-23T00:44:42;14.40;99.90
40828;DHT22;26549;50.918;5.338;2023-03-23T00:47:09;14.40;99.90
40828;DHT22;26549;50.918;5.338;2023-03-23T00:49:36;14.40;99.90
40828;DHT22;26549;50.918;5.338;2023-03-23T00:52:02;14.50;99.90
40828;DHT22;26549;50.918;5.338;2023-03-23T00:54:28;14.50;99.90
40828;DHT22;26549;50.918;5.338;2023-03-23T00:56:54;14.30;99.90
40828;DHT22;26549;50.918;5.338;2023-03-23T00:59:21;14.40;99.90
40828;DHT22;26549;50.918;5.338;2023-03-23T01:01:48;14.40;99.90
40828;DHT22;26549;50.918;5.338;2023-03-23T01:04:14;14.50;99.90
40828;DHT22;26549;50.918;5.338;2023-03-23T01:06:42;14.40;99.90
40828;DHT22;26549;50.918;5.338;2023-03-23T01:09:13;14.40;99.90
40828;DHT22;26549;50.918;5.338;2023-03-23T01:11:43;14.40;99.90
40828;DHT22;26549;50.918;5.338;2023-03-23T01:14:10;14.40;99.90
40828;DHT22;26549;50.918;5.338;2023-03-23T01:16:36;14.40;99.90
40828;DHT22;26549;50.918;5.338;2023-03-23T01:19:02;14.50;99.90
40828;DHT22;26549;50.918;5.338;2023-03-23T01:21:27;14.40;99.90
40828;DHT22;26549;50.918;5.338;2023-03-23T01:23:54;14.20;99.90
40828;DHT22;26549;50.918;5.338;2023-03-23T01:26:22;14.30;99.90
40828;DHT22;26549;50.918;5.338;2023-03-23T01:28:50;14.30;99.90
40828;DHT22;26549;50.918;5.338;2023-03-23T01:31:18;14.30;99.90
40828;DHT22;26549;50.918;5.338;2023-03-23T01:33:44;14.20;99.90
40828;DHT22;26549;50.918;5.338;2023-03-23T01:36:13;14.30;99.90
40828;DHT22;26549;50.918;5.338;2023-03-23T01:38:41;14.10;99.90
40828;DHT22;26549;50.918;5.338;2023-03-23T01:41:07;14.10;99.90
40828;DHT22;26549;50.918;5.338;2023-03-23T01:43:33;14.20;99.90
40828;DHT22;26549;50.918;5.338;2023-03-23T01:45:59;14.30;99.90
40828;DHT22;26549;50.918;5.338;2023-03-23T01:48:29;14.30;99.90
40828;DHT22;26549;50.918;5.338;2023-03-23T01:51:04;14.20;99.90
40828;DHT22;26549;50.918;5.338;2023-03-23T01:53:42;14.20;99.90
40828;DHT22;26549;50.918;5.338;2023-03-23T01:56:09;14.30;99.90
40828;DHT22;26549;50.918;5.338;2023-03-23T01:58:37;14.30;99.90
40828;DHT22;26549;50.918;5.338;2023-03-23T02:01:07;14.20;99.90
40828;DHT22;26549;50.918;5.338;2023-03-23T02:03:37;14.30;99.90
40828;DHT22;26549;50.918;5.338;2023-03-23T02:06:04;14.30;99.90
40828;DHT22;26549;50.918;5.338;2023-03-23T02:08:31;14.20;99.90
40828;DHT22;26549;50.918;5.338;2023-03-23T02:11:00;14.10;99.90
40828;DHT22;26549;50.918;5.338;2023-03-23T02:13:27;14.00;99.90
40828;DHT22;26549;50.918;5.338;2023-03-23T02:16:21;14.10;99.90
40828;DHT22;26549;50.918;5.338;2023-03-23T02:35:06;14.20;99.90
40828;DHT22;26549;50.918;5.338;2023-03-23T02:37:41;14.30;99.90
40828;DHT22;26549;50.918;5.338;2023-03-23T02:40:17;14.20;99.90
40828;DHT22;26549;50.918;5.338;2023-03-23T02:42:46;14.20;99.90
40828;DHT22;26549;50.918;5.338;2023-03-23T02:45:15;14.20;99.90
40828;DHT22;26549;50.918;5.338;2023-03-23T02:47:43;14.20;99.90
40828;DHT22;26549;50.918;5.338;2023-03-23T02:50:13;14.10;99.90
40828;DHT22;26549;50.918;5.338;2023-03-23T02:52:43;14.10;99.90
40828;DHT22;26549;50.918;5.338;2023-03-23T02:55:11;14.20;99.90
40828;DHT22;26549;50.918;5.338;2023-03-23T02:57:39;14.20;99.90
40828;DHT22;26549;50.918;5.338;2023-03-23T03:00:07;14.30;99.90
40828;DHT22;26549;50.918;5.338;2023-03-23T03:02:38;14.30;99.90
40828;DHT22;26549;50.918;5.338;2023-03-23T03:08:06;14.20;99.90
40828;DHT22;26549;50.918;5.338;2023-03-23T03:10:49;14.30;99.90
40828;DHT22;26549;50.918;5.338;2023-03-23T03:13:20;14.30;99.90
40828;DHT22;26549;50.918;5.338;2023-03-23T03:18:38;14.40;99.90
40828;DHT22;26549;50.918;5.338;2023-03-23T03:21:09;14.30;99.90
40828;DHT22;26549;50.918;5.338;2023-03-23T03:23:39;14.30;99.90
40828;DHT22;26549;50.918;5.338;2023-03-23T03:26:09;14.40;99.90
40828;DHT22;26549;50.918;5.338;2023-03-23T03:28:36;14.30;99.90
40828;DHT22;26549;50.918;5.338;2023-03-23T03:31:04;14.50;99.90
40828;DHT22;26549;50.918;5.338;2023-03-23T03:33:32;14.40;99.90
40828;DHT22;26549;50.918;5.338;2023-03-23T03:36:03;14.30;99.90
40828;DHT22;26549;50.918;5.338;2023-03-23T03:38:44;14.30;99.90
40828;DHT22;26549;50.918;5.338;2023-03-23T03:41:10;14.30;99.90
40828;DHT22;26549;50.918;5.338;2023-03-23T03:43:36;14.20;99.90
40828;DHT22;26549;50.918;5.338;2023-03-23T03:46:02;14.30;99.90
40828;DHT22;26549;50.918;5.338;2023-03-23T03:48:28;14.30;99.90
40828;DHT22;26549;50.918;5.338;2023-03-23T03:50:53;14.40;99.90
40828;DHT22;26549;50.918;5.338;2023-03-23T03:53:22;14.40;99.90
40828;DHT22;26549;50.918;5.338;2023-03-23T03:55:49;14.40;99.90
40828;DHT22;26549;50.918;5.338;2023-03-23T03:58:16;14.40;99.90
40828;DHT22;26549;50.918;5.338;2023-03-23T04:00:42;14.40;99.90
40828;DHT22;26549;50.918;5.338;2023-03-23T04:03:08;14.50;99.90
40828;DHT22;26549;50.918;5.338;2023-03-23T04:05:35;14.40;99.90
40828;DHT22;26549;50.918;5.338;2023-03-23T04:08:02;14.40;99.90
40828;DHT22;26549;50.918;5.338;2023-03-23T04:10:29;14.30;99.90
40828;DHT22;26549;50.918;5.338;2023-03-23T04:12:56;14.30;99.90
40828;DHT22;26549;50.918;5.338;2023-03-23T04:15:22;14.30;99.90
40828;DHT22;26549;50.918;5.338;2023-03-23T04:17:48;14.30;99.90
40828;DHT22;26549;50.918;5.338;2023-03-23T04:20:15;14.20;99.90
40828;DHT22;26549;50.918;5.338;2023-03-23T04:22:45;14.30;99.90
40828;DHT22;26549;50.918;5.338;2023-03-23T04:25:15;14.30;99.90
40828;DHT22;26549;50.918;5.338;2023-03-23T04:27:43;14.30;99.90
40828;DHT22;26549;50.918;5.338;2023-03-23T04:30:13;14.40;99.90
40828;DHT22;26549;50.918;5.338;2023-03-23T04:32:39;14.40;99.90
40828;DHT22;26549;50.918;5.338;2023-03-23T04:35:11;14.30;99.90
40828;DHT22;26549;50.918;5.338;2023-03-23T04:37:38;14.30;99.90
40828;DHT22;26549;50.918;5.338;2023-03-23T04:40:05;14.20;99.90
40828;DHT22;26549;50.918;5.338;2023-03-23T04:42:34;14.20;99.90
40828;DHT22;26549;50.918;5.338;2023-03-23T04:45:00;14.20;99.90
40828;DHT22;26549;50.918;5.338;2023-03-23T04:47:31;14.20;99.90
40828;DHT22;26549;50.918;5.338;2023-03-23T04:49:57;14.30;99.90
40828;DHT22;26549;50.918;5.338;2023-03-23T04:52:24;14.10;99.90
40828;DHT22;26549;50.918;5.338;2023-03-23T04:54:51;14.10;99.90
40828;DHT22;26549;50.918;5.338;2023-03-23T04:57:18;14.10;99.90
40828;DHT22;26549;50.918;5.338;2023-03-23T04:59:44;14.20;99.90
40828;DHT22;26549;50.918;5.338;2023-03-23T05:02:10;14.20;99.90
40828;DHT22;26549;50.918;5.338;2023-03-23T05:04:36;14.20;99.90
40828;DHT22;26549;50.918;5.338;2023-03-23T05:07:03;14.10;99.90
40828;DHT22;26549;50.918;5.338;2023-03-23T05:09:29;14.10;99.90
40828;DHT22;26549;50.918;5.338;2023-03-23T05:11:55;14.20;99.90
40828;DHT22;26549;50.918;5.338;2023-03-23T05:14:21;14.20;99.90
40828;DHT22;26549;50.918;5.338;2023-03-23T05:16:47;14.10;99.90
40828;DHT22;26549;50.918;5.338;2023-03-23T05:19:14;14.20;99.90
40828;DHT22;26549;50.918;5.338;2023-03-23T05:21:40;14.20;99.90
40828;DHT22;26549;50.918;5.338;2023-03-23T05:24:06;14.20;99.90
40828;DHT22;26549;50.918;5.338;2023-03-23T05:26:32;14.20;99.90
40828;DHT22;26549;50.918;5.338;2023-03-23T05:28:58;14.20;99.90
40828;DHT22;26549;50.918;5.338;2023-03-23T05:31:24;14.10;99.90
40828;DHT22;26549;50.918;5.338;2023-03-23T05:33:51;14.10;99.90
40828;DHT22;26549;50.918;5.338;2023-03-23T05:36:17;14.10;99.90
40828;DHT22;26549;50.918;5.338;2023-03-23T05:38:43;14.00;99.90
40828;DHT22;26549;50.918;5.338;2023-03-23T05:41:14;14.00;99.90
40828;DHT22;26549;50.918;5.338;2023-03-23T05:43:39;14.00;99.90
40828;DHT22;26549;50.918;5.338;2023-03-23T05:46:06;14.00;99.90
40828;DHT22;26549;50.918;5.338;2023-03-23T05:48:32;13.90;99.90
40828;DHT22;26549;50.918;5.338;2023-03-23T05:50:59;13.90;99.90
40828;DHT22;26549;50.918;5.338;2023-03-23T05:53:25;14.00;99.90
40828;DHT22;26549;50.918;5.338;2023-03-23T05:55:52;14.00;99.90
40828;DHT22;26549;50.918;5.338;2023-03-23T05:58:18;14.00;99.90
40828;DHT22;26549;50.918;5.338;2023-03-23T06:00:44;14.00;99.90
40828;DHT22;26549;50.918;5.338;2023-03-23T06:03:12;14.10;99.90
40828;DHT22;26549;50.918;5.338;2023-03-23T06:05:42;14.10;99.90
40828;DHT22;26549;50.918;5.338;2023-03-23T06:08:10;14.00;99.90
40828;DHT22;26549;50.918;5.338;2023-03-23T06:10:37;13.90;99.90
40828;DHT22;26549;50.918;5.338;2023-03-23T06:13:04;14.10;99.90
40828;DHT22;26549;50.918;5.338;2023-03-23T06:15:31;14.00;99.90
40828;DHT22;26549;50.918;5.338;2023-03-23T06:18:02;14.00;99.90
40828;DHT22;26549;50.918;5.338;2023-03-23T06:20:28;13.90;99.90
40828;DHT22;26549;50.918;5.338;2023-03-23T06:22:54;14.00;99.90
40828;DHT22;26549;50.918;5.338;2023-03-23T06:25:21;14.10;99.90
40828;DHT22;26549;50.918;5.338;2023-03-23T06:27:47;14.10;99.90
40828;DHT22;26549;50.918;5.338;2023-03-23T06:30:14;14.10;99.90
40828;DHT22;26549;50.918;5.338;2023-03-23T06:32:41;14.10;99.90
40828;DHT22;26549;50.918;5.338;2023-03-23T06:35:09;14.10;99.90
40828;DHT22;26549;50.918;5.338;2023-03-23T06:37:36;14.10;99.90
40828;DHT22;26549;50.918;5.338;2023-03-23T06:40:03;14.10;99.90
40828;DHT22;26549;50.918;5.338;2023-03-23T06:42:31;14.20;99.90
40828;DHT22;26549;50.918;5.338;2023-03-23T06:44:57;14.20;99.90
40828;DHT22;26549;50.918;5.338;2023-03-23T06:47:26;14.10;99.90
40828;DHT22;26549;50.918;5.338;2023-03-23T06:49:55;14.10;99.90
40828;DHT22;26549;50.918;5.338;2023-03-23T06:52:22;14.10;99.90
40828;DHT22;26549;50.918;5.338;2023-03-23T06:54:52;14.10;99.90
40828;DHT22;26549;50.918;5.338;2023-03-23T06:57:19;14.20;99.90
40828;DHT22;26549;50.918;5.338;2023-03-23T06:59:45;14.10;99.90
40828;DHT22;26549;50.918;5.338;2023-03-23T07:02:12;14.20;99.90
40828;DHT22;26549;50.918;5.338;2023-03-23T07:04:40;14.20;99.90
40828;DHT22;26549;50.918;5.338;2023-03-23T07:07:08;14.20;99.90
40828;DHT22;26549;50.918;5.338;2023-03-23T07:09:34;14.30;99.90
40828;DHT22;26549;50.918;5.338;2023-03-23T07:12:00;14.30;99.90
40828;DHT22;26549;50.918;5.338;2023-03-23T07:14:26;14.20;99.90
40828;DHT22;26549;50.918;5.338;2023-03-23T07:16:52;14.20;99.90
40828;DHT22;26549;50.918;5.338;2023-03-23T07:19:19;14.20;99.90
40828;DHT22;26549;50.918;5.338;2023-03-23T07:21:45;14.20;99.90
40828;DHT22;26549;50.918;5.338;2023-03-23T07:24:12;14.30;99.90
40828;DHT22;26549;50.918;5.338;2023-03-23T07:26:41;14.30;99.90
40828;DHT22;26549;50.918;5.338;2023-03-23T07:29:08;14.30;99.90
40828;DHT22;26549;50.918;5.338;2023-03-23T07:31:34;14.40;99.90
40828;DHT22;26549;50.918;5.338;2023-03-23T07:34:01;14.40;99.90
40828;DHT22;26549;50.918;5.338;2023-03-23T07:36:28;14.40;99.90
40828;DHT22;26549;50.918;5.338;2023-03-23T07:38:54;14.40;99.90
40828;DHT22;26549;50.918;5.338;2023-03-23T07:41:22;14.50;99.90
40828;DHT22;26549;50.918;5.338;2023-03-23T07:43:48;14.50;99.90
40828;DHT22;26549;50.918;5.338;2023-03-23T07:46:14;14.60;99.90
40828;DHT22;26549;50.918;5.338;2023-03-23T07:48:40;14.60;99.90
40828;DHT22;26549;50.918;5.338;2023-03-23T07:51:06;14.50;99.90
40828;DHT22;26549;50.918;5.338;2023-03-23T07:53:33;14.50;99.90
40828;DHT22;26549;50.918;5.338;2023-03-23T07:55:59;14.50;99.90
40828;DHT22;26549;50.918;5.338;2023-03-23T07:58:26;14.60;99.90
40828;DHT22;26549;50.918;5.338;2023-03-23T08:00:53;14.50;99.90
40828;DHT22;26549;50.918;5.338;2023-03-23T08:03:22;14.50;99.90
40828;DHT22;26549;50.918;5.338;2023-03-23T08:05:48;14.50;99.90
40828;DHT22;26549;50.918;5.338;2023-03-23T08:08:14;14.60;99.90
40828;DHT22;26549;50.918;5.338;2023-03-23T08:10:40;14.50;99.90
40828;DHT22;26549;50.918;5.338;2023-03-23T08:13:06;14.60;99.90
40828;DHT22;26549;50.918;5.338;2023-03-23T08:15:32;14.70;99.90
40828;DHT22;26549;50.918;5.338;2023-03-23T08:18:02;14.60;99.90
40828;DHT22;26549;50.918;5.338;2023-03-23T08:20:28;14.60;99.90
40828;DHT22;26549;50.918;5.338;2023-03-23T08:22:56;14.60;99.90
40828;DHT22;26549;50.918;5.338;2023-03-23T08:25:23;14.60;99.90
40828;DHT22;26549;50.918;5.338;2023-03-23T08:27:53;14.50;99.90
40828;DHT22;26549;50.918;5.338;2023-03-23T08:30:21;14.40;99.90
40828;DHT22;26549;50.918;5.338;2023-03-23T08:32:52;14.40;99.90
40828;DHT22;26549;50.918;5.338;2023-03-23T08:35:19;14.50;99.90
40828;DHT22;26549;50.918;5.338;2023-03-23T08:37:45;14.40;99.90
40828;DHT22;26549;50.918;5.338;2023-03-23T08:40:13;14.40;99.90
40828;DHT22;26549;50.918;5.338;2023-03-23T08:42:42;14.50;99.90
40828;DHT22;26549;50.918;5.338;2023-03-23T08:45:10;14.50;99.90
40828;DHT22;26549;50.918;5.338;2023-03-23T08:47:37;14.30;99.90
40828;DHT22;26549;50.918;5.338;2023-03-23T08:50:08;14.40;99.90
40828;DHT22;26549;50.918;5.338;2023-03-23T08:52:34;14.40;99.90
40828;DHT22;26549;50.918;5.338;2023-03-23T08:55:01;14.30;99.90
40828;DHT22;26549;50.918;5.338;2023-03-23T08:57:27;14.20;99.90
40828;DHT22;26549;50.918;5.338;2023-03-23T08:59:54;14.00;99.90
40828;DHT22;26549;50.918;5.338;2023-03-23T09:02:26;13.90;99.90
40828;DHT22;26549;50.918;5.338;2023-03-23T09:04:53;13.60;99.90
40828;DHT22;26549;50.918;5.338;2023-03-23T09:07:19;13.50;99.90
40828;DHT22;26549;50.918;5.338;2023-03-23T09:09:46;13.40;99.90
40828;DHT22;26549;50.918;5.338;2023-03-23T09:12:12;13.60;99.90
40828;DHT22;26549;50.918;5.338;2023-03-23T09:14:39;13.50;99.90
40828;DHT22;26549;50.918;5.338;2023-03-23T09:17:06;13.50;99.90
40828;DHT22;26549;50.918;5.338;2023-03-23T09:19:33;13.40;99.90
40828;DHT22;26549;50.918;5.338;2023-03-23T09:22:00;13.50;99.90
40828;DHT22;26549;50.918;5.338;2023-03-23T09:24:27;13.50;99.90
40828;DHT22;26549;50.918;5.338;2023-03-23T09:26:53;13.40;99.90
40828;DHT22;26549;50.918;5.338;2023-03-23T09:29:19;13.30;99.90
40828;DHT22;26549;50.918;5.338;2023-03-23T09:31:46;13.40;99.90
40828;DHT22;26549;50.918;5.338;2023-03-23T09:34:13;13.30;99.90
40828;DHT22;26549;50.918;5.338;2023-03-23T09:36:42;13.60;99.90
40828;DHT22;26549;50.918;5.338;2023-03-23T09:39:08;13.70;99.90
40828;DHT22;26549;50.918;5.338;2023-03-23T09:41:59;13.60;99.90
40828;DHT22;26549;50.918;5.338;2023-03-23T09:50:28;13.70;99.90
40828;DHT22;26549;50.918;5.338;2023-03-23T09:55:36;13.70;99.90
40828;DHT22;26549;50.918;5.338;2023-03-23T09:58:14;13.80;99.90
40828;DHT22;26549;50.918;5.338;2023-03-23T10:00:47;13.60;99.90
40828;DHT22;26549;50.918;5.338;2023-03-23T10:03:16;13.50;99.90
40828;DHT22;26549;50.918;5.338;2023-03-23T10:05:49;13.50;99.90
40828;DHT22;26549;50.918;5.338;2023-03-23T10:08:24;13.50;99.90
40828;DHT22;26549;50.918;5.338;2023-03-23T10:16:11;13.60;99.90
40828;DHT22;26549;50.918;5.338;2023-03-23T10:18:47;13.70;99.90
40828;DHT22;26549;50.918;5.338;2023-03-23T10:21:20;13.60;99.90
40828;DHT22;26549;50.918;5.338;2023-03-23T10:24:00;13.60;99.90
40828;DHT22;26549;50.918;5.338;2023-03-23T10:28:59;13.80;99.90
40828;DHT22;26549;50.918;5.338;2023-03-23T10:31:36;13.80;99.90
40828;DHT22;26549;50.918;5.338;2023-03-23T10:34:12;13.70;99.90
40828;DHT22;26549;50.918;5.338;2023-03-23T10:36:52;13.70;99.90
40828;DHT22;26549;50.918;5.338;2023-03-23T10:39:22;13.80;99.90
40828;DHT22;26549;50.918;5.338;2023-03-23T10:41:49;13.90;99.90
40828;DHT22;26549;50.918;5.338;2023-03-23T10:44:19;14.00;99.90
40828;DHT22;26549;50.918;5.338;2023-03-23T10:49:23;14.00;99.90
40828;DHT22;26549;50.918;5.338;2023-03-23T10:54:46;14.20;99.90
40828;DHT22;26549;50.918;5.338;2023-03-23T10:57:20;14.20;99.90
40828;DHT22;26549;50.918;5.338;2023-03-23T10:59:47;14.20;99.90
40828;DHT22;26549;50.918;5.338;2023-03-23T11:02:17;14.30;99.90
40828;DHT22;26549;50.918;5.338;2023-03-23T11:05:07;14.30;99.90
40828;DHT22;26549;50.918;5.338;2023-03-23T11:07:39;14.40;99.90
40828;DHT22;26549;50.918;5.338;2023-03-23T11:10:21;14.30;99.90
40828;DHT22;26549;50.918;5.338;2023-03-23T11:12:47;14.20;99.90
40828;DHT22;26549;50.918;5.338;2023-03-23T11:15:24;14.10;99.90
40828;DHT22;26549;50.918;5.338;2023-03-23T11:18:34;14.20;99.90
40828;DHT22;26549;50.918;5.338;2023-03-23T11:21:02;14.10;99.90
40828;DHT22;26549;50.918;5.338;2023-03-23T11:23:41;14.10;99.90
40828;DHT22;26549;50.918;5.338;2023-03-23T11:26:24;14.00;99.90
40828;DHT22;26549;50.918;5.338;2023-03-23T11:28:59;14.00;99.90
40828;DHT22;26549;50.918;5.338;2023-03-23T11:31:32;14.00;99.90
40828;DHT22;26549;50.918;5.338;2023-03-23T11:36:47;14.00;99.90
40828;DHT22;26549;50.918;5.338;2023-03-23T11:41:52;14.20;99.90
40828;DHT22;26549;50.918;5.338;2023-03-23T11:44:21;14.40;99.90
40828;DHT22;26549;50.918;5.338;2023-03-23T11:47:08;14.50;99.90
40828;DHT22;26549;50.918;5.338;2023-03-23T11:50:20;14.80;99.90
40828;DHT22;26549;50.918;5.338;2023-03-23T11:52:43;14.80;99.90
40828;DHT22;26549;50.918;5.338;2023-03-23T11:58:02;14.90;99.90
40828;DHT22;26549;50.918;5.338;2023-03-23T12:00:31;14.80;99.90
40828;DHT22;26549;50.918;5.338;2023-03-23T12:06:15;14.60;99.90
40828;DHT22;26549;50.918;5.338;2023-03-23T12:08:58;14.90;99.90
40828;DHT22;26549;50.918;5.338;2023-03-23T12:11:37;15.10;99.90
40828;DHT22;26549;50.918;5.338;2023-03-23T12:14:37;15.20;99.90
40828;DHT22;26549;50.918;5.338;2023-03-23T12:22:59;15.40;99.90
40828;DHT22;26549;50.918;5.338;2023-03-23T12:27:55;15.60;99.90
40828;DHT22;26549;50.918;5.338;2023-03-23T12:33:38;15.70;99.90
40828;DHT22;26549;50.918;5.338;2023-03-23T12:48:03;15.60;99.90
40828;DHT22;26549;50.918;5.338;2023-03-23T12:50:33;15.70;99.90
40828;DHT22;26549;50.918;5.338;2023-03-23T12:53:09;15.60;99.90
40828;DHT22;26549;50.918;5.338;2023-03-23T12:56:02;15.60;99.90
40828;DHT22;26549;50.918;5.338;2023-03-23T12:58:34;15.60;99.90
40828;DHT22;26549;50.918;5.338;2023-03-23T13:01:12;15.60;99.90
40828;DHT22;26549;50.918;5.338;2023-03-23T13:06:40;15.70;99.90
40828;DHT22;26549;50.918;5.338;2023-03-23T13:09:35;15.70;99.90
40828;DHT22;26549;50.918;5.338;2023-03-23T13:12:03;15.70;99.90
40828;DHT22;26549;50.918;5.338;2023-03-23T13:15:00;15.80;99.90
40828;DHT22;26549;50.918;5.338;2023-03-23T13:20:53;15.90;99.90
40828;DHT22;26549;50.918;5.338;2023-03-23T13:23:43;15.90;99.90
40828;DHT22;26549;50.918;5.338;2023-03-23T13:26:16;16.00;99.90
40828;DHT22;26549;50.918;5.338;2023-03-23T13:28:57;15.90;99.90
40828;DHT22;26549;50.918;5.338;2023-03-23T13:33:53;15.70;99.90
40828;DHT22;26549;50.918;5.338;2023-03-23T13:36:33;15.60;99.90
40828;DHT22;26549;50.918;5.338;2023-03-23T13:39:04;15.60;99.90
40828;DHT22;26549;50.918;5.338;2023-03-23T13:41:33;15.50;99.90
40828;DHT22;26549;50.918;5.338;2023-03-23T13:49:53;15.10;99.90
40828;DHT22;26549;50.918;5.338;2023-03-23T14:03:03;15.30;99.90
40828;DHT22;26549;50.918;5.338;2023-03-23T14:11:00;15.50;99.90
40828;DHT22;26549;50.918;5.338;2023-03-23T14:13:43;15.50;99.90
40828;DHT22;26549;50.918;5.338;2023-03-23T14:16:20;15.60;99.90
40828;DHT22;26549;50.918;5.338;2023-03-23T14:18:55;15.60;99.90
40828;DHT22;26549;50.918;5.338;2023-03-23T14:21:36;15.50;99.90
40828;DHT22;26549;50.918;5.338;2023-03-23T14:24:16;15.60;99.90
40828;DHT22;26549;50.918;5.338;2023-03-23T14:26:43;15.50;99.90
40828;DHT22;26549;50.918;5.338;2023-03-23T14:29:13;15.70;99.90
40828;DHT22;26549;50.918;5.338;2023-03-23T14:31:40;15.80;99.90
40828;DHT22;26549;50.918;5.338;2023-03-23T14:34:15;15.70;99.90
40828;DHT22;26549;50.918;5.338;2023-03-23T14:36:42;15.90;99.90
40828;DHT22;26549;50.918;5.338;2023-03-23T14:39:29;16.10;99.90
40828;DHT22;26549;50.918;5.338;2023-03-23T14:42:09;16.10;99.90
40828;DHT22;26549;50.918;5.338;2023-03-23T14:44:41;16.20;99.90
40828;DHT22;26549;50.918;5.338;2023-03-23T14:47:13;16.30;99.90
40828;DHT22;26549;50.918;5.338;2023-03-23T14:49:43;16.10;99.90
40828;DHT22;26549;50.918;5.338;2023-03-23T14:52:12;16.10;99.90
40828;DHT22;26549;50.918;5.338;2023-03-23T14:54:39;16.10;99.90
40828;DHT22;26549;50.918;5.338;2023-03-23T14:57:19;16.10;99.90
40828;DHT22;26549;50.918;5.338;2023-03-23T14:59:47;16.20;99.90
40828;DHT22;26549;50.918;5.338;2023-03-23T15:02:30;16.10;99.90
40828;DHT22;26549;50.918;5.338;2023-03-23T15:05:00;16.10;99.90
40828;DHT22;26549;50.918;5.338;2023-03-23T15:07:33;16.30;99.90
40828;DHT22;26549;50.918;5.338;2023-03-23T15:09:59;16.30;99.90
40828;DHT22;26549;50.918;5.338;2023-03-23T15:12:28;16.30;99.90
40828;DHT22;26549;50.918;5.338;2023-03-23T15:14:57;16.30;99.90
40828;DHT22;26549;50.918;5.338;2023-03-23T15:17:27;16.50;99.90
40828;DHT22;26549;50.918;5.338;2023-03-23T15:19:55;16.40;99.90
40828;DHT22;26549;50.918;5.338;2023-03-23T15:22:31;16.30;99.90
40828;DHT22;26549;50.918;5.338;2023-03-23T15:25:10;16.30;99.90
40828;DHT22;26549;50.918;5.338;2023-03-23T15:27:42;16.30;99.90
40828;DHT22;26549;50.918;5.338;2023-03-23T15:30:19;16.20;99.90
40828;DHT22;26549;50.918;5.338;2023-03-23T15:33:04;16.20;99.90
40828;DHT22;26549;50.918;5.338;2023-03-23T15:35:35;16.20;99.90
40828;DHT22;26549;50.918;5.338;2023-03-23T15:38:04;16.30;99.90
40828;DHT22;26549;50.918;5.338;2023-03-23T15:40:38;16.30;99.90
40828;DHT22;26549;50.918;5.338;2023-03-23T15:43:25;16.10;99.90
40828;DHT22;26549;50.918;5.338;2023-03-23T15:46:04;16.10;99.90
40828;DHT22;26549;50.918;5.338;2023-03-23T15:48:47;16.20;99.90
40828;DHT22;26549;50.918;5.338;2023-03-23T15:51:14;16.30;99.90
40828;DHT22;26549;50.918;5.338;2023-03-23T15:53:40;16.30;99.90
40828;DHT22;26549;50.918;5.338;2023-03-23T15:56:09;16.30;99.90
40828;DHT22;26549;50.918;5.338;2023-03-23T15:58:36;16.30;99.90
40828;DHT22;26549;50.918;5.338;2023-03-23T16:01:11;16.30;99.90
40828;DHT22;26549;50.918;5.338;2023-03-23T16:06:13;16.40;99.90
40828;DHT22;26549;50.918;5.338;2023-03-23T16:08:41;16.40;99.90
40828;DHT22;26549;50.918;5.338;2023-03-23T16:11:12;16.40;99.90
40828;DHT22;26549;50.918;5.338;2023-03-23T16:13:38;16.30;99.90
40828;DHT22;26549;50.918;5.338;2023-03-23T16:16:05;16.40;99.90
40828;DHT22;26549;50.918;5.338;2023-03-23T16:18:32;16.50;99.90
40828;DHT22;26549;50.918;5.338;2023-03-23T16:20:58;16.40;99.90
40828;DHT22;26549;50.918;5.338;2023-03-23T16:23:25;16.40;99.90
40828;DHT22;26549;50.918;5.338;2023-03-23T16:25:51;16.50;99.90
40828;DHT22;26549;50.918;5.338;2023-03-23T16:28:17;16.60;99.90
40828;DHT22;26549;50.918;5.338;2023-03-23T16:30:46;16.50;99.90
40828;DHT22;26549;50.918;5.338;2023-03-23T16:33:13;16.50;99.90
40828;DHT22;26549;50.918;5.338;2023-03-23T16:35:40;16.40;99.90
40828;DHT22;26549;50.918;5.338;2023-03-23T16:38:06;16.30;99.90
40828;DHT22;26549;50.918;5.338;2023-03-23T16:40:31;16.30;99.90
40828;DHT22;26549;50.918;5.338;2023-03-23T16:42:58;16.30;99.90
40828;DHT22;26549;50.918;5.338;2023-03-23T16:45:24;16.40;99.90
40828;DHT22;26549;50.918;5.338;2023-03-23T16:47:52;16.40;99.90
40828;DHT22;26549;50.918;5.338;2023-03-23T16:50:20;16.50;99.90
40828;DHT22;26549;50.918;5.338;2023-03-23T16:52:47;16.50;99.90
40828;DHT22;26549;50.918;5.338;2023-03-23T16:55:15;16.60;99.90
40828;DHT22;26549;50.918;5.338;2023-03-23T16:57:41;16.60;99.90
40828;DHT22;26549;50.918;5.338;2023-03-23T17:00:10;16.50;99.90
40828;DHT22;26549;50.918;5.338;2023-03-23T17:02:40;16.60;99.90
40828;DHT22;26549;50.918;5.338;2023-03-23T17:05:06;16.40;99.90
40828;DHT22;26549;50.918;5.338;2023-03-23T17:07:33;16.30;99.90
40828;DHT22;26549;50.918;5.338;2023-03-23T17:09:59;16.20;99.90
40828;DHT22;26549;50.918;5.338;2023-03-23T17:12:25;16.30;99.90
40828;DHT22;26549;50.918;5.338;2023-03-23T17:15:11;16.20;99.90
40828;DHT22;26549;50.918;5.338;2023-03-23T17:17:37;16.20;99.90
40828;DHT22;26549;50.918;5.338;2023-03-23T17:20:04;16.20;99.90
40828;DHT22;26549;50.918;5.338;2023-03-23T17:22:31;16.10;99.90
40828;DHT22;26549;50.918;5.338;2023-03-23T17:24:56;16.10;99.90
40828;DHT22;26549;50.918;5.338;2023-03-23T17:27:23;16.10;99.90
40828;DHT22;26549;50.918;5.338;2023-03-23T17:29:50;16.00;99.90
40828;DHT22;26549;50.918;5.338;2023-03-23T17:32:16;16.00;99.90
40828;DHT22;26549;50.918;5.338;2023-03-23T17:34:41;16.10;99.90
40828;DHT22;26549;50.918;5.338;2023-03-23T17:37:09;16.10;99.90
40828;DHT22;26549;50.918;5.338;2023-03-23T17:39:35;16.10;99.90